sensor_id;sensor_type;location;lat;lon;timestamp;noise_LAeq;noise_LA_min;noise_LA_max;noise_LA01;noise_LA95
74234;Laerm;62591;55.764;37.718;2022-10-31T00:01:46;45.83;39.53;55.20;;
74234;Laerm;62591;55.764;37.718;2022-10-31T00:04:14;43.34;38.21;49.86;;
74234;Laerm;62591;55.764;37.718;2022-10-31T00:06:43;45.27;37.49;52.95;;
74234;Laerm;62591;55.764;37.718;2022-10-31T00:09:11;47.11;38.28;53.37;;
74234;Laerm;62591;55.764;37.718;2022-10-31T00:11:40;45.63;38.70;59.61;;
74234;Laerm;62591;55.764;37.718;2022-10-31T00:14:08;48.13;39.72;56.28;;
74234;Laerm;62591;55.764;37.718;2022-10-31T00:16:36;47.60;40.33;57.45;;
74234;Laerm;62591;55.764;37.718;2022-10-31T00:19:07;44.51;37.88;53.96;;
74234;Laerm;62591;55.764;37.718;2022-10-31T00:21:36;44.30;38.09;52.70;;
74234;Laerm;62591;55.764;37.718;2022-10-31T00:24:05;48.83;38.46;61.43;;
74234;Laerm;62591;55.764;37.718;2022-10-31T00:26:35;41.97;37.51;48.95;;
74234;Laerm;62591;55.764;37.718;2022-10-31T00:29:03;47.84;38.96;57.78;;
74234;Laerm;62591;55.764;37.718;2022-10-31T00:31:32;53.85;42.46;68.20;;
74234;Laerm;62591;55.764;37.718;2022-10-31T00:34:00;49.88;40.59;68.17;;
74234;Laerm;62591;55.764;37.718;2022-10-31T00:36:32;48.74;38.18;61.99;;
74234;Laerm;62591;55.764;37.718;2022-10-31T00:39:01;48.35;38.13;64.56;;
74234;Laerm;62591;55.764;37.718;2022-10-31T00:41:31;48.26;37.67;65.26;;
74234;Laerm;62591;55.764;37.718;2022-10-31T00:43:59;49.71;38.48;67.45;;
74234;Laerm;62591;55.764;37.718;2022-10-31T00:46:28;50.07;38.06;58.37;;
74234;Laerm;62591;55.764;37.718;2022-10-31T00:48:56;49.64;42.84;56.14;;
74234;Laerm;62591;55.764;37.718;2022-10-31T00:51:24;43.79;37.21;50.85;;
74234;Laerm;62591;55.764;37.718;2022-10-31T00:53:54;49.27;38.35;60.85;;
74234;Laerm;62591;55.764;37.718;2022-10-31T00:56:23;51.14;42.07;60.81;;
74234;Laerm;62591;55.764;37.718;2022-10-31T00:58:51;53.96;43.17;66.81;;
74234;Laerm;62591;55.764;37.718;2022-10-31T01:01:20;42.61;37.49;57.09;;
74234;Laerm;62591;55.764;37.718;2022-10-31T01:03:49;46.54;39.37;63.76;;
74234;Laerm;62591;55.764;37.718;2022-10-31T01:06:17;43.91;39.45;51.52;;
74234;Laerm;62591;55.764;37.718;2022-10-31T01:08:47;44.71;37.88;53.67;;
74234;Laerm;62591;55.764;37.718;2022-10-31T01:11:18;53.31;38.76;64.51;;
74234;Laerm;62591;55.764;37.718;2022-10-31T01:13:47;46.91;40.68;52.84;;
74234;Laerm;62591;55.764;37.718;2022-10-31T01:16:20;49.17;38.96;56.81;;
74234;Laerm;62591;55.764;37.718;2022-10-31T01:18:50;43.57;38.37;52.57;;
74234;Laerm;62591;55.764;37.718;2022-10-31T01:24:21;50.33;40.42;57.66;;
74234;Laerm;62591;55.764;37.718;2022-10-31T01:26:51;42.14;37.30;49.87;;
74234;Laerm;62591;55.764;37.718;2022-10-31T01:29:20;45.01;38.23;51.93;;
74234;Laerm;62591;55.764;37.718;2022-10-31T01:31:49;52.23;40.24;65.96;;
74234;Laerm;62591;55.764;37.718;2022-10-31T01:34:17;43.93;38.48;49.67;;
74234;Laerm;62591;55.764;37.718;2022-10-31T01:36:46;50.16;40.94;59.46;;
74234;Laerm;62591;55.764;37.718;2022-10-31T01:39:19;44.77;38.50;55.53;;
74234;Laerm;62591;55.764;37.718;2022-10-31T01:41:49;46.94;39.56;65.82;;
74234;Laerm;62591;55.764;37.718;2022-10-31T01:44:54;48.95;42.19;64.93;;
74234;Laerm;62591;55.764;37.718;2022-10-31T01:47:37;51.02;40.35;69.78;;
74234;Laerm;62591;55.764;37.718;2022-10-31T01:50:13;47.72;40.90;54.80;;
74234;Laerm;62591;55.764;37.718;2022-10-31T01:52:46;47.95;37.68;65.03;;
74234;Laerm;62591;55.764;37.718;2022-10-31T01:55:18;44.44;36.81;50.73;;
74234;Laerm;62591;55.764;37.718;2022-10-31T01:57:52;41.84;36.48;53.92;;
74234;Laerm;62591;55.764;37.718;2022-10-31T02:00:24;45.25;37.68;57.74;;
74234;Laerm;62591;55.764;37.718;2022-10-31T02:02:53;44.11;36.78;49.60;;
74234;Laerm;62591;55.764;37.718;2022-10-31T02:05:26;49.91;39.77;64.31;;
74234;Laerm;62591;55.764;37.718;2022-10-31T02:07:59;47.43;41.18;58.38;;
74234;Laerm;62591;55.764;37.718;2022-10-31T02:10:33;45.92;41.17;56.32;;
74234;Laerm;62591;55.764;37.718;2022-10-31T02:13:04;42.57;38.21;49.43;;
74234;Laerm;62591;55.764;37.718;2022-10-31T02:15:41;45.94;39.59;53.77;;
74234;Laerm;62591;55.764;37.718;2022-10-31T02:18:11;48.19;40.38;56.93;;
74234;Laerm;62591;55.764;37.718;2022-10-31T02:20:48;48.86;41.14;56.70;;
74234;Laerm;62591;55.764;37.718;2022-10-31T02:23:51;47.97;39.87;56.97;;
74234;Laerm;62591;55.764;37.718;2022-10-31T02:26:43;49.79;40.06;65.93;;
74234;Laerm;62591;55.764;37.718;2022-10-31T02:32:21;47.91;40.13;59.44;;
74234;Laerm;62591;55.764;37.718;2022-10-31T02:34:58;44.18;39.15;50.29;;
74234;Laerm;62591;55.764;37.718;2022-10-31T02:37:36;46.66;40.10;54.34;;
74234;Laerm;62591;55.764;37.718;2022-10-31T02:40:11;46.06;40.57;53.70;;
74234;Laerm;62591;55.764;37.718;2022-10-31T02:43:06;50.31;40.24;62.44;;
74234;Laerm;62591;55.764;37.718;2022-10-31T02:45:42;47.38;41.64;53.90;;
74234;Laerm;62591;55.764;37.718;2022-10-31T02:48:19;48.63;41.89;54.34;;
74234;Laerm;62591;55.764;37.718;2022-10-31T02:50:52;47.71;42.48;63.11;;
74234;Laerm;62591;55.764;37.718;2022-10-31T02:53:23;47.33;41.37;53.32;;
74234;Laerm;62591;55.764;37.718;2022-10-31T02:55:59;47.71;42.29;54.00;;
74234;Laerm;62591;55.764;37.718;2022-10-31T02:58:31;47.38;42.07;53.01;;
74234;Laerm;62591;55.764;37.718;2022-10-31T03:01:10;46.51;41.65;52.35;;
74234;Laerm;62591;55.764;37.718;2022-10-31T03:06:41;45.25;40.56;52.54;;
74234;Laerm;62591;55.764;37.718;2022-10-31T03:09:19;48.30;41.53;53.84;;
74234;Laerm;62591;55.764;37.718;2022-10-31T03:11:58;45.90;42.01;51.24;;
74234;Laerm;62591;55.764;37.718;2022-10-31T03:14:37;47.17;41.78;52.87;;
74234;Laerm;62591;55.764;37.718;2022-10-31T03:17:09;46.37;41.17;52.43;;
74234;Laerm;62591;55.764;37.718;2022-10-31T03:19:46;49.24;43.35;57.35;;
74234;Laerm;62591;55.764;37.718;2022-10-31T03:22:19;51.91;45.75;65.24;;
74234;Laerm;62591;55.764;37.718;2022-10-31T03:24:50;49.50;43.76;56.17;;
74234;Laerm;62591;55.764;37.718;2022-10-31T03:27:24;48.64;42.62;56.43;;
74234;Laerm;62591;55.764;37.718;2022-10-31T03:29:55;49.51;44.07;54.56;;
74234;Laerm;62591;55.764;37.718;2022-10-31T03:32:29;48.13;42.61;57.80;;
74234;Laerm;62591;55.764;37.718;2022-10-31T03:35:04;47.71;42.57;56.48;;
74234;Laerm;62591;55.764;37.718;2022-10-31T03:37:36;48.79;41.31;55.80;;
74234;Laerm;62591;55.764;37.718;2022-10-31T03:40:11;50.79;43.91;73.35;;
74234;Laerm;62591;55.764;37.718;2022-10-31T03:42:48;49.83;43.09;59.20;;
74234;Laerm;62591;55.764;37.718;2022-10-31T03:45:23;48.55;42.64;53.42;;
74234;Laerm;62591;55.764;37.718;2022-10-31T03:47:53;50.53;44.38;58.02;;
74234;Laerm;62591;55.764;37.718;2022-10-31T03:50:26;48.19;42.51;52.77;;
74234;Laerm;62591;55.764;37.718;2022-10-31T03:53:04;50.52;44.07;57.13;;
74234;Laerm;62591;55.764;37.718;2022-10-31T03:55:40;48.60;43.46;54.12;;
74234;Laerm;62591;55.764;37.718;2022-10-31T03:58:13;51.42;43.69;66.34;;
74234;Laerm;62591;55.764;37.718;2022-10-31T04:00:54;52.17;42.80;79.76;;
74234;Laerm;62591;55.764;37.718;2022-10-31T04:03:32;48.76;44.01;54.43;;
74234;Laerm;62591;55.764;37.718;2022-10-31T04:06:14;48.90;44.48;55.91;;
74234;Laerm;62591;55.764;37.718;2022-10-31T04:08:45;50.21;44.73;57.55;;
74234;Laerm;62591;55.764;37.718;2022-10-31T04:11:21;50.77;44.50;60.41;;
74234;Laerm;62591;55.764;37.718;2022-10-31T04:14:11;50.63;46.05;60.08;;
74234;Laerm;62591;55.764;37.718;2022-10-31T04:16:41;49.80;45.10;61.38;;
74234;Laerm;62591;55.764;37.718;2022-10-31T04:19:12;50.50;45.05;57.67;;
74234;Laerm;62591;55.764;37.718;2022-10-31T04:21:42;50.77;46.14;59.35;;
74234;Laerm;62591;55.764;37.718;2022-10-31T04:24:12;51.27;46.32;61.91;;
74234;Laerm;62591;55.764;37.718;2022-10-31T04:26:41;50.55;45.01;63.60;;
74234;Laerm;62591;55.764;37.718;2022-10-31T04:29:09;51.72;45.64;62.75;;
74234;Laerm;62591;55.764;37.718;2022-10-31T04:31:37;54.63;45.80;69.26;;
74234;Laerm;62591;55.764;37.718;2022-10-31T04:34:06;54.57;46.36;69.11;;
74234;Laerm;62591;55.764;37.718;2022-10-31T04:36:38;56.11;46.59;77.85;;
74234;Laerm;62591;55.764;37.718;2022-10-31T04:39:08;52.93;44.05;73.51;;
74234;Laerm;62591;55.764;37.718;2022-10-31T04:41:44;52.11;47.45;67.87;;
74234;Laerm;62591;55.764;37.718;2022-10-31T04:44:14;54.90;47.53;67.03;;
74234;Laerm;62591;55.764;37.718;2022-10-31T04:46:47;52.71;47.52;62.06;;
74234;Laerm;62591;55.764;37.718;2022-10-31T04:49:16;49.79;44.88;57.21;;
74234;Laerm;62591;55.764;37.718;2022-10-31T04:51:44;51.41;45.44;68.49;;
74234;Laerm;62591;55.764;37.718;2022-10-31T04:54:15;49.63;45.37;61.57;;
74234;Laerm;62591;55.764;37.718;2022-10-31T04:57:09;51.31;45.11;64.94;;
74234;Laerm;62591;55.764;37.718;2022-10-31T04:59:38;50.12;46.12;56.43;;
74234;Laerm;62591;55.764;37.718;2022-10-31T05:02:08;52.63;46.05;69.48;;
74234;Laerm;62591;55.764;37.718;2022-10-31T05:04:44;50.28;44.49;58.17;;
74234;Laerm;62591;55.764;37.718;2022-10-31T05:07:13;51.72;45.20;60.25;;
74234;Laerm;62591;55.764;37.718;2022-10-31T05:09:44;50.66;44.90;61.91;;
74234;Laerm;62591;55.764;37.718;2022-10-31T05:12:13;52.02;47.61;64.95;;
74234;Laerm;62591;55.764;37.718;2022-10-31T05:15:00;53.92;48.62;65.37;;
74234;Laerm;62591;55.764;37.718;2022-10-31T05:17:48;52.67;47.40;63.38;;
74234;Laerm;62591;55.764;37.718;2022-10-31T05:20:36;50.99;44.50;63.14;;
74234;Laerm;62591;55.764;37.718;2022-10-31T05:23:30;50.79;45.79;57.05;;
74234;Laerm;62591;55.764;37.718;2022-10-31T05:26:02;55.22;46.12;81.59;;
74234;Laerm;62591;55.764;37.718;2022-10-31T05:28:32;51.63;47.37;61.05;;
74234;Laerm;62591;55.764;37.718;2022-10-31T05:31:02;53.93;45.67;63.09;;
74234;Laerm;62591;55.764;37.718;2022-10-31T05:33:31;51.93;46.14;62.68;;
74234;Laerm;62591;55.764;37.718;2022-10-31T05:36:18;51.38;46.60;64.81;;
74234;Laerm;62591;55.764;37.718;2022-10-31T05:38:57;51.09;45.37;57.88;;
74234;Laerm;62591;55.764;37.718;2022-10-31T05:41:32;51.64;46.32;62.45;;
74234;Laerm;62591;55.764;37.718;2022-10-31T05:44:21;53.12;47.81;68.74;;
74234;Laerm;62591;55.764;37.718;2022-10-31T05:47:18;52.80;46.59;60.45;;
74234;Laerm;62591;55.764;37.718;2022-10-31T05:50:07;53.70;47.80;77.42;;
74234;Laerm;62591;55.764;37.718;2022-10-31T05:52:47;51.32;47.19;58.98;;
74234;Laerm;62591;55.764;37.718;2022-10-31T05:55:29;52.03;45.67;56.94;;
74234;Laerm;62591;55.764;37.718;2022-10-31T05:58:15;51.52;46.20;63.43;;
74234;Laerm;62591;55.764;37.718;2022-10-31T06:01:03;51.66;46.00;58.94;;
74234;Laerm;62591;55.764;37.718;2022-10-31T06:03:32;51.35;46.82;61.25;;
74234;Laerm;62591;55.764;37.718;2022-10-31T06:06:03;51.93;45.78;60.71;;
74234;Laerm;62591;55.764;37.718;2022-10-31T06:08:37;50.83;46.88;60.92;;
74234;Laerm;62591;55.764;37.718;2022-10-31T06:11:10;51.61;45.62;57.40;;
74234;Laerm;62591;55.764;37.718;2022-10-31T06:14:09;51.03;46.01;59.54;;
74234;Laerm;62591;55.764;37.718;2022-10-31T06:16:49;52.05;45.59;57.26;;
74234;Laerm;62591;55.764;37.718;2022-10-31T06:19:40;51.06;47.08;55.34;;
74234;Laerm;62591;55.764;37.718;2022-10-31T06:22:11;51.37;45.89;58.76;;
74234;Laerm;62591;55.764;37.718;2022-10-31T06:24:40;50.55;45.82;62.83;;
74234;Laerm;62591;55.764;37.718;2022-10-31T06:27:28;51.36;46.67;59.42;;
74234;Laerm;62591;55.764;37.718;2022-10-31T06:30:06;52.22;47.00;63.11;;
74234;Laerm;62591;55.764;37.718;2022-10-31T06:32:36;52.09;46.78;57.62;;
74234;Laerm;62591;55.764;37.718;2022-10-31T06:35:05;52.83;47.93;64.07;;
74234;Laerm;62591;55.764;37.718;2022-10-31T06:37:35;52.31;46.98;62.70;;
74234;Laerm;62591;55.764;37.718;2022-10-31T06:40:17;51.22;46.28;56.35;;
74234;Laerm;62591;55.764;37.718;2022-10-31T06:43:06;51.95;48.28;61.31;;
74234;Laerm;62591;55.764;37.718;2022-10-31T06:45:35;51.03;45.30;56.84;;
74234;Laerm;62591;55.764;37.718;2022-10-31T06:48:24;52.32;45.26;65.60;;
74234;Laerm;62591;55.764;37.718;2022-10-31T06:51:11;51.21;46.09;61.73;;
74234;Laerm;62591;55.764;37.718;2022-10-31T06:53:39;51.72;45.83;61.76;;
74234;Laerm;62591;55.764;37.718;2022-10-31T06:56:10;53.06;48.23;63.82;;
74234;Laerm;62591;55.764;37.718;2022-10-31T06:58:46;51.73;46.61;63.30;;
74234;Laerm;62591;55.764;37.718;2022-10-31T07:01:20;51.93;46.73;64.61;;
74234;Laerm;62591;55.764;37.718;2022-10-31T07:03:48;53.12;47.57;80.33;;
74234;Laerm;62591;55.764;37.718;2022-10-31T07:06:17;52.86;47.11;63.38;;
74234;Laerm;62591;55.764;37.718;2022-10-31T07:08:51;53.46;47.50;64.90;;
74234;Laerm;62591;55.764;37.718;2022-10-31T07:11:19;52.56;47.53;69.80;;
74234;Laerm;62591;55.764;37.718;2022-10-31T07:13:47;51.74;47.61;56.59;;
74234;Laerm;62591;55.764;37.718;2022-10-31T07:16:16;53.22;46.86;67.36;;
74234;Laerm;62591;55.764;37.718;2022-10-31T07:18:46;51.08;45.51;57.83;;
74234;Laerm;62591;55.764;37.718;2022-10-31T07:21:16;51.09;44.71;64.27;;
74234;Laerm;62591;55.764;37.718;2022-10-31T07:23:47;51.73;46.56;60.16;;
74234;Laerm;62591;55.764;37.718;2022-10-31T07:26:34;52.79;48.20;66.29;;
74234;Laerm;62591;55.764;37.718;2022-10-31T07:29:03;52.46;46.01;62.29;;
74234;Laerm;62591;55.764;37.718;2022-10-31T07:31:34;53.67;46.42;81.40;;
74234;Laerm;62591;55.764;37.718;2022-10-31T07:34:10;53.37;48.43;69.32;;
74234;Laerm;62591;55.764;37.718;2022-10-31T07:37:17;57.39;49.79;81.04;;
74234;Laerm;62591;55.764;37.718;2022-10-31T07:39:47;52.95;47.66;69.60;;
74234;Laerm;62591;55.764;37.718;2022-10-31T07:42:16;52.30;48.14;63.60;;
74234;Laerm;62591;55.764;37.718;2022-10-31T07:44:45;54.45;48.91;78.38;;
74234;Laerm;62591;55.764;37.718;2022-10-31T07:47:38;58.61;46.84;87.26;;
74234;Laerm;62591;55.764;37.718;2022-10-31T07:50:28;57.41;49.13;81.66;;
74234;Laerm;62591;55.764;37.718;2022-10-31T07:53:17;51.86;46.46;61.62;;
74234;Laerm;62591;55.764;37.718;2022-10-31T07:55:52;55.84;48.48;84.94;;
74234;Laerm;62591;55.764;37.718;2022-10-31T07:58:24;56.13;48.73;81.71;;
74234;Laerm;62591;55.764;37.718;2022-10-31T08:00:53;52.39;46.37;67.33;;
74234;Laerm;62591;55.764;37.718;2022-10-31T08:03:31;53.61;48.16;73.86;;
74234;Laerm;62591;55.764;37.718;2022-10-31T08:06:33;54.55;49.89;76.72;;
74234;Laerm;62591;55.764;37.718;2022-10-31T08:09:12;54.15;49.27;73.02;;
74234;Laerm;62591;55.764;37.718;2022-10-31T08:11:42;54.15;49.34;74.88;;
74234;Laerm;62591;55.764;37.718;2022-10-31T08:14:10;52.57;49.06;64.34;;
74234;Laerm;62591;55.764;37.718;2022-10-31T08:16:39;52.88;47.29;60.39;;
74234;Laerm;62591;55.764;37.718;2022-10-31T08:19:09;51.87;47.19;60.50;;
74234;Laerm;62591;55.764;37.718;2022-10-31T08:21:40;53.35;48.76;71.15;;
74234;Laerm;62591;55.764;37.718;2022-10-31T08:24:10;53.92;49.61;60.24;;
74234;Laerm;62591;55.764;37.718;2022-10-31T08:26:39;53.23;49.04;59.93;;
74234;Laerm;62591;55.764;37.718;2022-10-31T08:29:11;54.58;48.28;83.13;;
74234;Laerm;62591;55.764;37.718;2022-10-31T08:31:40;53.88;48.40;76.27;;
74234;Laerm;62591;55.764;37.718;2022-10-31T08:34:41;54.12;49.48;68.30;;
74234;Laerm;62591;55.764;37.718;2022-10-31T08:37:34;53.52;48.70;67.33;;
74234;Laerm;62591;55.764;37.718;2022-10-31T08:40:05;54.93;49.51;67.02;;
74234;Laerm;62591;55.764;37.718;2022-10-31T08:42:34;55.49;48.45;81.33;;
74234;Laerm;62591;55.764;37.718;2022-10-31T08:45:04;53.99;48.11;70.53;;
74234;Laerm;62591;55.764;37.718;2022-10-31T08:47:33;54.56;48.48;73.67;;
74234;Laerm;62591;55.764;37.718;2022-10-31T08:50:02;53.53;47.43;76.17;;
74234;Laerm;62591;55.764;37.718;2022-10-31T08:52:30;54.61;49.59;63.85;;
74234;Laerm;62591;55.764;37.718;2022-10-31T08:55:20;54.34;48.12;77.04;;
74234;Laerm;62591;55.764;37.718;2022-10-31T08:58:02;60.61;48.19;78.72;;
74234;Laerm;62591;55.764;37.718;2022-10-31T09:00:41;53.83;48.45;74.67;;
74234;Laerm;62591;55.764;37.718;2022-10-31T09:03:18;53.10;46.42;72.86;;
74234;Laerm;62591;55.764;37.718;2022-10-31T09:05:47;51.60;44.93;60.17;;
74234;Laerm;62591;55.764;37.718;2022-10-31T09:08:36;53.19;47.38;75.42;;
74234;Laerm;62591;55.764;37.718;2022-10-31T09:11:07;51.69;46.12;61.95;;
74234;Laerm;62591;55.764;37.718;2022-10-31T09:14:10;57.13;47.94;79.39;;
74234;Laerm;62591;55.764;37.718;2022-10-31T09:16:38;55.05;48.63;81.18;;
74234;Laerm;62591;55.764;37.718;2022-10-31T09:19:16;53.26;46.72;72.44;;
74234;Laerm;62591;55.764;37.718;2022-10-31T09:21:46;54.01;45.47;79.31;;
74234;Laerm;62591;55.764;37.718;2022-10-31T09:24:14;51.86;46.76;65.92;;
74234;Laerm;62591;55.764;37.718;2022-10-31T09:26:44;53.25;46.62;60.96;;
74234;Laerm;62591;55.764;37.718;2022-10-31T09:29:25;53.02;46.82;77.36;;
74234;Laerm;62591;55.764;37.718;2022-10-31T09:31:58;51.83;45.16;60.71;;
74234;Laerm;62591;55.764;37.718;2022-10-31T09:34:32;51.92;46.47;60.80;;
74234;Laerm;62591;55.764;37.718;2022-10-31T09:37:12;53.43;46.42;74.56;;
74234;Laerm;62591;55.764;37.718;2022-10-31T09:39:40;53.51;46.79;71.74;;
74234;Laerm;62591;55.764;37.718;2022-10-31T09:42:38;52.78;46.32;64.87;;
74234;Laerm;62591;55.764;37.718;2022-10-31T09:45:32;53.36;47.05;76.77;;
74234;Laerm;62591;55.764;37.718;2022-10-31T09:48:37;52.92;47.08;64.29;;
74234;Laerm;62591;55.764;37.718;2022-10-31T09:51:22;52.97;45.89;73.92;;
74234;Laerm;62591;55.764;37.718;2022-10-31T09:54:14;52.31;46.22;64.74;;
74234;Laerm;62591;55.764;37.718;2022-10-31T09:56:44;55.68;47.78;81.78;;
74234;Laerm;62591;55.764;37.718;2022-10-31T09:59:21;60.17;48.16;84.42;;
74234;Laerm;62591;55.764;37.718;2022-10-31T10:01:56;56.75;48.26;72.33;;
74234;Laerm;62591;55.764;37.718;2022-10-31T10:04:33;55.89;49.02;75.92;;
74234;Laerm;62591;55.764;37.718;2022-10-31T10:07:16;53.71;47.12;69.97;;
74234;Laerm;62591;55.764;37.718;2022-10-31T10:09:53;57.37;48.36;77.39;;
74234;Laerm;62591;55.764;37.718;2022-10-31T10:13:10;58.68;48.79;83.44;;
74234;Laerm;62591;55.764;37.718;2022-10-31T10:16:00;56.88;49.74;76.26;;
74234;Laerm;62591;55.764;37.718;2022-10-31T10:18:42;55.75;47.86;80.08;;
74234;Laerm;62591;55.764;37.718;2022-10-31T10:21:23;53.33;47.46;64.75;;
74234;Laerm;62591;55.764;37.718;2022-10-31T10:24:05;53.45;48.08;70.08;;
74234;Laerm;62591;55.764;37.718;2022-10-31T10:26:41;52.39;48.03;69.35;;
74234;Laerm;62591;55.764;37.718;2022-10-31T10:29:24;52.73;46.54;64.64;;
74234;Laerm;62591;55.764;37.718;2022-10-31T10:31:58;53.19;48.36;72.08;;
74234;Laerm;62591;55.764;37.718;2022-10-31T10:34:31;52.33;47.15;59.45;;
74234;Laerm;62591;55.764;37.718;2022-10-31T10:37:05;52.96;47.24;64.42;;
74234;Laerm;62591;55.764;37.718;2022-10-31T10:39:40;52.97;46.75;62.38;;
74234;Laerm;62591;55.764;37.718;2022-10-31T10:42:13;51.69;47.44;59.90;;
74234;Laerm;62591;55.764;37.718;2022-10-31T10:44:59;54.14;48.33;80.27;;
74234;Laerm;62591;55.764;37.718;2022-10-31T10:47:51;55.84;48.25;76.24;;
74234;Laerm;62591;55.764;37.718;2022-10-31T10:50:30;52.23;47.44;62.91;;
74234;Laerm;62591;55.764;37.718;2022-10-31T10:53:08;54.04;47.68;65.91;;
74234;Laerm;62591;55.764;37.718;2022-10-31T10:55:45;53.20;47.35;72.52;;
74234;Laerm;62591;55.764;37.718;2022-10-31T10:58:17;64.67;47.86;95.14;;
74234;Laerm;62591;55.764;37.718;2022-10-31T11:00:46;52.28;46.00;64.48;;
74234;Laerm;62591;55.764;37.718;2022-10-31T11:03:20;51.09;45.87;62.13;;
74234;Laerm;62591;55.764;37.718;2022-10-31T11:05:50;52.13;47.31;68.79;;
74234;Laerm;62591;55.764;37.718;2022-10-31T11:08:26;51.04;46.30;61.00;;
74234;Laerm;62591;55.764;37.718;2022-10-31T11:11:03;51.10;46.31;68.04;;
74234;Laerm;62591;55.764;37.718;2022-10-31T11:13:35;54.18;47.18;70.24;;
74234;Laerm;62591;55.764;37.718;2022-10-31T11:16:06;53.43;47.76;72.79;;
74234;Laerm;62591;55.764;37.718;2022-10-31T11:18:41;54.22;47.19;70.10;;
74234;Laerm;62591;55.764;37.718;2022-10-31T11:21:20;52.95;47.53;61.09;;
74234;Laerm;62591;55.764;37.718;2022-10-31T11:24:02;52.25;46.10;74.04;;
74234;Laerm;62591;55.764;37.718;2022-10-31T11:26:30;53.06;46.57;66.14;;
74234;Laerm;62591;55.764;37.718;2022-10-31T11:29:02;52.96;45.79;64.96;;
74234;Laerm;62591;55.764;37.718;2022-10-31T11:31:31;51.41;45.79;61.61;;
74234;Laerm;62591;55.764;37.718;2022-10-31T11:34:03;51.95;46.29;61.39;;
74234;Laerm;62591;55.764;37.718;2022-10-31T11:36:35;51.14;45.88;60.96;;
74234;Laerm;62591;55.764;37.718;2022-10-31T11:39:15;51.87;47.56;61.73;;
74234;Laerm;62591;55.764;37.718;2022-10-31T11:41:46;53.01;46.40;77.55;;
74234;Laerm;62591;55.764;37.718;2022-10-31T11:44:19;51.05;46.66;61.80;;
74234;Laerm;62591;55.764;37.718;2022-10-31T11:46:49;54.12;47.07;65.35;;
74234;Laerm;62591;55.764;37.718;2022-10-31T11:49:25;54.70;47.87;72.16;;
74234;Laerm;62591;55.764;37.718;2022-10-31T11:51:59;56.28;48.05;69.91;;
74234;Laerm;62591;55.764;37.718;2022-10-31T11:54:31;56.46;50.47;65.84;;
74234;Laerm;62591;55.764;37.718;2022-10-31T11:57:00;53.04;47.86;67.35;;
74234;Laerm;62591;55.764;37.718;2022-10-31T11:59:31;51.31;46.78;60.24;;
74234;Laerm;62591;55.764;37.718;2022-10-31T12:02:01;50.60;45.98;69.10;;
74234;Laerm;62591;55.764;37.718;2022-10-31T12:04:38;55.18;46.96;66.74;;
74234;Laerm;62591;55.764;37.718;2022-10-31T12:07:09;55.49;49.90;70.84;;
74234;Laerm;62591;55.764;37.718;2022-10-31T12:09:38;52.70;48.20;61.90;;
74234;Laerm;62591;55.764;37.718;2022-10-31T12:12:24;54.32;48.33;76.45;;
74234;Laerm;62591;55.764;37.718;2022-10-31T12:15:04;55.80;48.99;80.19;;
74234;Laerm;62591;55.764;37.718;2022-10-31T12:17:41;54.57;46.54;84.41;;
74234;Laerm;62591;55.764;37.718;2022-10-31T12:20:21;54.29;47.70;67.37;;
74234;Laerm;62591;55.764;37.718;2022-10-31T12:23:00;52.18;47.25;60.50;;
74234;Laerm;62591;55.764;37.718;2022-10-31T12:25:37;50.69;45.70;61.07;;
74234;Laerm;62591;55.764;37.718;2022-10-31T12:28:21;53.56;47.59;64.18;;
74234;Laerm;62591;55.764;37.718;2022-10-31T12:31:02;53.26;47.07;74.50;;
74234;Laerm;62591;55.764;37.718;2022-10-31T12:33:47;50.05;44.20;60.73;;
74234;Laerm;62591;55.764;37.718;2022-10-31T12:36:29;51.72;47.10;60.61;;
74234;Laerm;62591;55.764;37.718;2022-10-31T12:39:11;51.96;46.28;60.03;;
74234;Laerm;62591;55.764;37.718;2022-10-31T12:41:47;55.22;46.84;64.56;;
74234;Laerm;62591;55.764;37.718;2022-10-31T12:44:34;52.13;46.43;70.36;;
74234;Laerm;62591;55.764;37.718;2022-10-31T12:47:34;50.76;46.00;58.50;;
74234;Laerm;62591;55.764;37.718;2022-10-31T12:50:19;54.03;47.43;69.63;;
74234;Laerm;62591;55.764;37.718;2022-10-31T12:52:59;54.10;47.77;65.90;;
74234;Laerm;62591;55.764;37.718;2022-10-31T12:55:47;51.30;46.83;66.94;;
74234;Laerm;62591;55.764;37.718;2022-10-31T12:58:21;51.59;45.79;67.34;;
74234;Laerm;62591;55.764;37.718;2022-10-31T13:01:01;52.90;48.04;62.49;;
74234;Laerm;62591;55.764;37.718;2022-10-31T13:03:38;50.59;46.73;61.63;;
74234;Laerm;62591;55.764;37.718;2022-10-31T13:06:09;58.27;48.80;77.52;;
74234;Laerm;62591;55.764;37.718;2022-10-31T13:08:44;54.08;47.73;74.13;;
74234;Laerm;62591;55.764;37.718;2022-10-31T13:11:17;53.29;47.44;71.93;;
74234;Laerm;62591;55.764;37.718;2022-10-31T13:13:55;52.85;48.04;61.19;;
74234;Laerm;62591;55.764;37.718;2022-10-31T13:16:30;59.54;47.38;81.41;;
74234;Laerm;62591;55.764;37.718;2022-10-31T13:19:04;52.46;46.93;62.66;;
74234;Laerm;62591;55.764;37.718;2022-10-31T13:21:41;49.42;44.92;56.97;;
74234;Laerm;62591;55.764;37.718;2022-10-31T13:24:16;57.06;47.02;74.03;;
74234;Laerm;62591;55.764;37.718;2022-10-31T13:26:48;53.25;47.67;67.18;;
74234;Laerm;62591;55.764;37.718;2022-10-31T13:29:26;51.61;47.12;59.83;;
74234;Laerm;62591;55.764;37.718;2022-10-31T13:31:59;54.15;46.41;78.17;;
74234;Laerm;62591;55.764;37.718;2022-10-31T13:34:34;56.72;47.81;69.39;;
74234;Laerm;62591;55.764;37.718;2022-10-31T13:37:12;52.03;46.73;63.70;;
74234;Laerm;62591;55.764;37.718;2022-10-31T13:39:58;54.03;46.31;69.31;;
74234;Laerm;62591;55.764;37.718;2022-10-31T13:42:41;54.82;48.43;64.87;;
74234;Laerm;62591;55.764;37.718;2022-10-31T13:45:15;54.85;47.21;71.91;;
74234;Laerm;62591;55.764;37.718;2022-10-31T13:47:55;58.52;48.15;84.91;;
74234;Laerm;62591;55.764;37.718;2022-10-31T13:50:26;53.69;48.18;69.65;;
74234;Laerm;62591;55.764;37.718;2022-10-31T13:53:18;52.06;47.02;58.25;;
74234;Laerm;62591;55.764;37.718;2022-10-31T13:55:50;56.03;49.56;66.86;;
74234;Laerm;62591;55.764;37.718;2022-10-31T13:58:26;54.23;46.38;66.31;;
74234;Laerm;62591;55.764;37.718;2022-10-31T14:01:15;53.06;47.99;66.71;;
74234;Laerm;62591;55.764;37.718;2022-10-31T14:03:58;53.60;46.44;75.70;;
74234;Laerm;62591;55.764;37.718;2022-10-31T14:06:45;61.09;47.71;73.69;;
74234;Laerm;62591;55.764;37.718;2022-10-31T14:09:26;61.81;50.14;88.42;;
74234;Laerm;62591;55.764;37.718;2022-10-31T14:12:01;51.01;47.40;59.11;;
74234;Laerm;62591;55.764;37.718;2022-10-31T14:14:42;55.11;47.24;71.83;;
74234;Laerm;62591;55.764;37.718;2022-10-31T14:17:19;53.14;48.31;71.73;;
74234;Laerm;62591;55.764;37.718;2022-10-31T14:23:12;56.24;48.60;78.03;;
74234;Laerm;62591;55.764;37.718;2022-10-31T14:25:41;52.40;48.12;61.62;;
74234;Laerm;62591;55.764;37.718;2022-10-31T14:28:21;57.29;46.44;80.84;;
74234;Laerm;62591;55.764;37.718;2022-10-31T14:30:52;60.05;49.07;87.63;;
74234;Laerm;62591;55.764;37.718;2022-10-31T14:33:24;52.98;46.36;69.87;;